createdAt,value
2022-11-20T00:01:26.103Z,62.11
2022-11-20T00:02:57.726Z,62.02
2022-11-20T00:04:29.450Z,61.81
2022-11-20T00:06:01.542Z,61.63
2022-11-20T00:07:33.278Z,61.27
2022-11-20T00:09:06.279Z,61.54
2022-11-20T00:10:38.066Z,61.24
2022-11-20T00:12:09.900Z,61.13
2022-11-20T00:13:41.581Z,61.28
2022-11-20T00:15:14.634Z,60.95
2022-11-20T00:16:46.250Z,61.15
2022-11-20T00:18:17.859Z,60.97
2022-11-20T00:19:49.479Z,61.36
2022-11-20T00:21:22.929Z,61.22
2022-11-20T00:22:54.651Z,61.16
2022-11-20T00:24:26.283Z,61.63
2022-11-20T00:26:01.618Z,61.87
2022-11-20T00:27:33.515Z,61.48
2022-11-20T00:29:05.442Z,61.53
2022-11-20T00:30:38.406Z,61.57
2022-11-20T00:32:10.103Z,61.61
2022-11-20T00:33:42.286Z,61.61
2022-11-20T00:35:13.965Z,61.90
2022-11-20T00:36:45.642Z,62.38
2022-11-20T00:38:17.334Z,63.10
2022-11-20T00:39:48.953Z,63.63
2022-11-20T00:41:21.048Z,63.88
2022-11-20T00:42:52.682Z,63.83
2022-11-20T00:44:24.359Z,63.93
2022-11-20T00:46:00.882Z,64.13
2022-11-20T00:47:32.515Z,64.36
2022-11-20T00:49:04.157Z,64.20
2022-11-20T00:50:35.749Z,64.31
2022-11-20T00:52:07.465Z,64.22
2022-11-20T00:53:39.346Z,64.68
2022-11-20T00:55:10.994Z,64.81
2022-11-20T00:56:42.615Z,64.61
2022-11-20T00:58:14.614Z,64.35
2022-11-20T00:59:46.289Z,64.28
2022-11-20T01:01:21.358Z,64.22
2022-11-20T01:02:53.027Z,64.39
2022-11-20T01:04:24.667Z,64.07
2022-11-20T01:06:00.818Z,64.67
2022-11-20T01:07:33.401Z,64.30
2022-11-20T01:09:10.553Z,64.33
2022-11-20T01:10:42.184Z,64.51
2022-11-20T01:12:13.834Z,64.33
2022-11-20T01:13:46.114Z,63.85
2022-11-20T01:15:17.744Z,63.82
2022-11-20T01:16:52.132Z,63.59
2022-11-20T01:18:23.774Z,63.38
2022-11-20T01:19:55.406Z,63.56
2022-11-20T01:21:29.693Z,63.46
2022-11-20T01:23:01.294Z,63.80
2022-11-20T01:24:32.963Z,63.61
2022-11-20T01:26:06.890Z,63.72
2022-11-20T01:27:38.524Z,63.82
2022-11-20T01:29:13.381Z,63.81
2022-11-20T01:30:45.039Z,63.92
2022-11-20T01:32:18.042Z,63.94
2022-11-20T01:33:51.995Z,63.79
2022-11-20T01:35:23.634Z,63.85
2022-11-20T01:36:55.323Z,63.79
2022-11-20T01:38:26.918Z,63.40
2022-11-20T01:39:58.536Z,63.37
2022-11-20T01:41:50.645Z,63.69
2022-11-20T01:43:22.831Z,63.89
2022-11-20T01:44:57.608Z,64.43
2022-11-20T01:46:29.372Z,64.59
2022-11-20T01:48:02.449Z,64.85
2022-11-20T01:49:38.498Z,65.28
2022-11-20T01:51:17.141Z,64.91
2022-11-20T01:52:52.474Z,65.11
2022-11-20T01:54:30.873Z,64.88
2022-11-20T01:56:06.650Z,64.98
2022-11-20T01:57:39.720Z,64.90
2022-11-20T01:59:14.472Z,64.59
2022-11-20T02:00:46.125Z,65.25
2022-11-20T02:02:17.779Z,65.49
2022-11-20T02:03:51.517Z,65.46
2022-11-20T02:05:28.013Z,65.59
2022-11-20T02:07:01.742Z,65.25
2022-11-20T02:08:34.155Z,65.39
2022-11-20T02:10:05.977Z,65.40
2022-11-20T02:11:37.571Z,65.83
2022-11-20T02:13:27.878Z,65.59
2022-11-20T02:14:59.579Z,65.82
2022-11-20T02:16:33.490Z,66.11
2022-11-20T02:18:06.514Z,66.11
2022-11-20T02:19:39.955Z,66.39
2022-11-20T02:21:21.542Z,66.23
2022-11-20T02:22:58.756Z,66.18
2022-11-20T02:24:32.208Z,66.06
2022-11-20T02:26:07.123Z,66.52
2022-11-20T02:27:38.813Z,66.22
2022-11-20T02:29:10.438Z,66.20
2022-11-20T02:30:42.105Z,66.24
2022-11-20T02:32:20.180Z,66.80
2022-11-20T02:33:56.030Z,66.74
2022-11-20T02:35:43.499Z,66.69
2022-11-20T02:37:16.131Z,66.97
2022-11-20T02:38:48.620Z,66.90
2022-11-20T02:40:22.721Z,66.95
2022-11-20T02:41:55.022Z,67.12
2022-11-20T02:43:26.641Z,67.29
2022-11-20T02:44:58.274Z,67.65
2022-11-20T02:46:30.340Z,67.59
2022-11-20T02:48:02.078Z,67.52
2022-11-20T02:49:34.117Z,67.52
2022-11-20T02:51:05.839Z,67.52
2022-11-20T02:52:37.470Z,67.19
2022-11-20T02:54:09.089Z,67.61
2022-11-20T02:55:42.049Z,66.97
2022-11-20T02:57:13.725Z,67.27
2022-11-20T02:58:45.374Z,66.68
2022-11-20T03:00:17.330Z,66.62
2022-11-20T03:01:48.932Z,66.75
2022-11-20T03:03:20.570Z,66.70
2022-11-20T03:04:52.297Z,66.40
2022-11-20T03:06:23.953Z,66.58
2022-11-20T03:07:55.571Z,66.71
2022-11-20T03:09:27.229Z,66.63
2022-11-20T03:11:05.323Z,66.74
2022-11-20T03:12:36.940Z,66.78
2022-11-20T03:14:08.558Z,66.68
2022-11-20T03:15:40.218Z,67.12
2022-11-20T03:17:12.129Z,67.13
2022-11-20T03:18:44.097Z,67.15
2022-11-20T03:20:15.961Z,67.31
2022-11-20T03:21:48.196Z,67.03
2022-11-20T03:23:19.802Z,66.98
2022-11-20T03:24:52.071Z,66.81
2022-11-20T03:26:26.724Z,66.67
2022-11-20T03:27:58.418Z,66.53
2022-11-20T03:29:30.084Z,66.72
2022-11-20T03:31:06.533Z,66.75
2022-11-20T03:32:38.313Z,66.93
2022-11-20T03:34:11.671Z,67.17
2022-11-20T03:35:43.337Z,67.23
2022-11-20T03:37:15.034Z,66.79
2022-11-20T03:38:47.250Z,66.90
2022-11-20T03:40:18.906Z,67.02
2022-11-20T03:41:51.886Z,67.18
2022-11-20T03:43:23.490Z,68.04
2022-11-20T03:44:55.188Z,68.58
2022-11-20T03:46:27.684Z,68.49
2022-11-20T03:47:59.338Z,68.78
2022-11-20T03:49:30.940Z,69.36
2022-11-20T03:51:10.529Z,69.93
2022-11-20T03:52:42.926Z,70.28
2022-11-20T03:54:14.519Z,71.22
2022-11-20T03:55:46.334Z,71.51
2022-11-20T03:57:19.313Z,72.08
2022-11-20T03:58:51.362Z,71.92
2022-11-20T04:00:23.019Z,72.59
2022-11-20T04:01:54.645Z,72.84
2022-11-20T04:03:26.510Z,72.82
2022-11-20T04:04:58.209Z,73.04
2022-11-20T04:06:34.079Z,73.47
2022-11-20T04:08:06.291Z,73.35
2022-11-20T04:09:37.943Z,74.12
2022-11-20T04:11:11.157Z,74.13
2022-11-20T04:12:44.244Z,74.28
2022-11-20T04:14:17.061Z,74.07
2022-11-20T04:15:48.690Z,74.13
2022-11-20T04:17:20.278Z,74.54
2022-11-20T04:18:53.553Z,74.18
2022-11-20T04:20:25.202Z,74.14
2022-11-20T04:21:56.849Z,73.85
2022-11-20T04:23:28.853Z,73.77
2022-11-20T04:25:00.705Z,73.53
2022-11-20T04:26:32.589Z,73.28
2022-11-20T04:28:05.635Z,73.10
2022-11-20T04:29:37.259Z,73.01
2022-11-20T04:31:10.703Z,72.97
2022-11-20T04:32:42.339Z,72.91
2022-11-20T04:34:14.129Z,72.55
2022-11-20T04:35:48.082Z,72.59
2022-11-20T04:37:19.732Z,72.31
2022-11-20T04:38:56.548Z,72.68
2022-11-20T04:40:29.543Z,72.83
2022-11-20T04:42:19.908Z,72.64
2022-11-20T04:43:59.633Z,73.08
2022-11-20T04:45:31.252Z,72.77
2022-11-20T04:47:02.852Z,72.67
2022-11-20T04:48:35.920Z,72.57
2022-11-20T04:50:08.916Z,72.83
2022-11-20T04:51:40.568Z,72.87
2022-11-20T04:53:12.312Z,72.99
2022-11-20T04:54:43.922Z,73.03
2022-11-20T04:56:16.043Z,72.62
2022-11-20T04:57:51.307Z,72.07
2022-11-20T04:59:24.584Z,71.86
2022-11-20T05:01:02.896Z,71.88
2022-11-20T05:02:34.497Z,71.79
2022-11-20T05:04:06.751Z,71.69
2022-11-20T05:05:38.416Z,71.84
2022-11-20T05:07:10.094Z,71.71
2022-11-20T05:08:42.296Z,71.64
2022-11-20T05:10:14.034Z,71.50
2022-11-20T05:11:49.185Z,71.78
2022-11-20T05:13:23.055Z,70.70
2022-11-20T05:14:56.127Z,70.76
2022-11-20T05:16:27.838Z,70.28
2022-11-20T05:17:59.700Z,70.33
2022-11-20T05:19:31.391Z,69.77
2022-11-20T05:21:03.401Z,70.02
2022-11-20T05:22:35.070Z,70.14
2022-11-20T05:24:07.868Z,69.84
2022-11-20T05:25:39.510Z,69.88
2022-11-20T05:27:11.106Z,69.53
2022-11-20T05:28:43.007Z,69.41
2022-11-20T05:30:16.293Z,69.07
2022-11-20T05:31:47.903Z,69.26
2022-11-20T05:33:19.942Z,69.11
2022-11-20T05:34:51.542Z,69.03
2022-11-20T05:36:23.199Z,69.11
2022-11-20T05:37:54.843Z,69.04
2022-11-20T05:39:26.426Z,68.77
2022-11-20T05:41:04.589Z,69.24
2022-11-20T05:42:36.577Z,68.52
2022-11-20T05:44:08.269Z,68.13
2022-11-20T05:45:41.287Z,68.03
2022-11-20T05:47:12.934Z,68.26
2022-11-20T05:48:45.955Z,68.21
2022-11-20T05:50:17.565Z,67.96
2022-11-20T05:51:49.419Z,67.89
2022-11-20T05:53:21.108Z,67.39
2022-11-20T05:54:52.778Z,67.74
2022-11-20T05:56:24.482Z,67.58
2022-11-20T05:57:56.243Z,68.22
2022-11-20T05:59:27.910Z,68.14
2022-11-20T06:01:06.629Z,67.48
2022-11-20T06:02:38.292Z,67.21
2022-11-20T06:04:10.097Z,67.14
2022-11-20T06:05:41.684Z,67.07
2022-11-20T06:07:13.505Z,67.05
2022-11-20T06:08:45.513Z,67.00
2022-11-20T06:10:17.199Z,67.06
2022-11-20T06:11:48.837Z,67.28
2022-11-20T06:13:20.529Z,67.09
2022-11-20T06:14:52.112Z,67.07
2022-11-20T06:16:25.195Z,66.89
2022-11-20T06:17:56.912Z,67.11
2022-11-20T06:19:28.635Z,67.50
2022-11-20T06:21:02.210Z,67.42
2022-11-20T06:22:33.858Z,67.40
2022-11-20T06:24:06.228Z,68.20
2022-11-20T06:25:38.741Z,68.37
2022-11-20T06:27:10.360Z,68.25
2022-11-20T06:28:42.470Z,68.20
2022-11-20T06:30:14.328Z,68.53
2022-11-20T06:31:47.359Z,68.05
2022-11-20T06:33:19.023Z,68.42
2022-11-20T06:34:50.707Z,68.88
2022-11-20T06:36:23.710Z,68.81
2022-11-20T06:37:57.017Z,68.87
2022-11-20T06:39:28.624Z,68.46
2022-11-20T06:41:00.284Z,68.50
2022-11-20T06:42:31.877Z,68.14
2022-11-20T06:44:04.955Z,68.18
2022-11-20T06:45:36.794Z,68.08
2022-11-20T06:47:09.818Z,68.61
2022-11-20T06:48:41.749Z,68.06
2022-11-20T06:50:13.547Z,68.86
2022-11-20T06:51:45.124Z,68.71
2022-11-20T06:53:17.025Z,68.85
2022-11-20T06:54:48.639Z,69.10
2022-11-20T06:56:20.330Z,68.98
2022-11-20T06:57:55.768Z,68.65
2022-11-20T06:59:28.750Z,68.91
2022-11-20T07:01:00.759Z,68.66
2022-11-20T07:02:33.787Z,68.53
2022-11-20T07:04:05.552Z,68.40
2022-11-20T07:05:37.883Z,67.73
2022-11-20T07:07:09.860Z,68.05
2022-11-20T07:08:41.658Z,68.76
2022-11-20T07:10:13.503Z,69.31
2022-11-20T07:11:45.111Z,70.33
2022-11-20T07:13:16.718Z,70.51
2022-11-20T07:14:48.361Z,70.45
2022-11-20T07:16:19.963Z,70.69
2022-11-20T07:17:53.181Z,70.86
2022-11-20T07:19:24.861Z,71.44
2022-11-20T07:20:56.791Z,71.37
2022-11-20T07:22:28.434Z,71.55
2022-11-20T07:24:00.158Z,71.01
2022-11-20T07:25:31.845Z,71.03
2022-11-20T07:27:03.519Z,70.93
2022-11-20T07:28:35.959Z,70.79
2022-11-20T07:30:08.281Z,70.23
2022-11-20T07:31:39.878Z,70.07
2022-11-20T07:33:12.858Z,69.38
2022-11-20T07:34:44.752Z,69.28
2022-11-20T07:36:16.522Z,69.73
2022-11-20T07:37:49.417Z,69.59
2022-11-20T07:39:21.304Z,69.06
2022-11-20T07:40:54.921Z,69.06
2022-11-20T07:42:29.708Z,69.53
2022-11-20T07:44:02.001Z,68.57
2022-11-20T07:45:33.689Z,68.81
2022-11-20T07:47:05.445Z,68.74
2022-11-20T07:48:38.450Z,68.05
2022-11-20T07:50:11.054Z,68.06
2022-11-20T07:51:42.693Z,68.37
2022-11-20T07:53:14.849Z,68.29
2022-11-20T07:54:46.621Z,68.43
2022-11-20T07:56:18.269Z,67.86
2022-11-20T07:57:55.500Z,67.93
2022-11-20T07:59:27.194Z,67.35
2022-11-20T08:00:58.908Z,67.76
2022-11-20T08:02:30.573Z,67.58
2022-11-20T08:04:03.661Z,67.37
2022-11-20T08:05:35.564Z,68.01
2022-11-20T08:07:07.209Z,67.33
2022-11-20T08:08:42.980Z,67.17
2022-11-20T08:10:19.420Z,67.43
2022-11-20T08:12:09.600Z,66.99
2022-11-20T08:13:59.518Z,67.39
2022-11-20T08:15:31.371Z,67.17
2022-11-20T08:17:03.033Z,67.25
2022-11-20T08:18:34.707Z,67.39
2022-11-20T08:20:09.143Z,67.25
2022-11-20T08:21:41.708Z,67.08
2022-11-20T08:23:13.380Z,67.07
2022-11-20T08:24:45.005Z,67.52
2022-11-20T08:26:16.635Z,67.55
2022-11-20T08:27:48.223Z,67.70
2022-11-20T08:29:20.079Z,67.81
2022-11-20T08:30:51.977Z,67.56
2022-11-20T08:32:23.639Z,67.21
2022-11-20T08:33:55.534Z,67.17
2022-11-20T08:35:28.667Z,67.21
2022-11-20T08:37:00.340Z,67.03
2022-11-20T08:38:32.625Z,67.17
2022-11-20T08:40:05.147Z,66.75
2022-11-20T08:41:37.717Z,66.97
2022-11-20T08:43:09.369Z,69.46
2022-11-20T08:44:41.012Z,69.11
2022-11-20T08:46:12.877Z,68.33
2022-11-20T08:47:45.108Z,67.79
2022-11-20T08:49:16.798Z,67.41
2022-11-20T08:50:49.766Z,67.47
2022-11-20T08:52:21.384Z,67.07
2022-11-20T08:53:53.046Z,67.08
2022-11-20T08:55:24.668Z,66.99
2022-11-20T08:56:57.628Z,67.01
2022-11-20T08:58:31.017Z,66.83
2022-11-20T09:00:06.740Z,66.49
2022-11-20T09:01:39.893Z,66.93
2022-11-20T09:03:11.595Z,66.71
2022-11-20T09:04:43.289Z,67.10
2022-11-20T09:06:16.958Z,66.91
2022-11-20T09:07:48.549Z,66.92
2022-11-20T09:09:21.157Z,67.33
2022-11-20T09:10:53.479Z,67.27
2022-11-20T09:12:25.284Z,67.31
2022-11-20T09:13:56.879Z,67.06
2022-11-20T09:15:28.553Z,67.16
2022-11-20T09:17:00.294Z,66.98
2022-11-20T09:18:36.953Z,66.85
2022-11-20T09:20:10.829Z,66.99
2022-11-20T09:21:43.807Z,66.77
2022-11-20T09:23:15.455Z,66.59
2022-11-20T09:24:47.070Z,66.64
2022-11-20T09:26:18.851Z,66.71
2022-11-20T09:27:56.097Z,66.64
2022-11-20T09:29:27.919Z,66.59
2022-11-20T09:30:59.702Z,66.58
2022-11-20T09:32:31.387Z,66.58
2022-11-20T09:34:03.068Z,66.43
2022-11-20T09:35:35.201Z,66.42
2022-11-20T09:37:08.217Z,65.97
2022-11-20T09:38:39.882Z,65.80
2022-11-20T09:40:20.494Z,65.71
2022-11-20T09:42:19.842Z,65.62
2022-11-20T09:44:05.892Z,65.67
2022-11-20T09:45:58.859Z,65.62
2022-11-20T09:47:45.181Z,65.38
2022-11-20T09:49:32.044Z,66.19
2022-11-20T09:51:13.254Z,65.64
2022-11-20T09:52:56.156Z,65.41
2022-11-20T09:54:32.309Z,65.26
2022-11-20T09:56:05.669Z,65.27
2022-11-20T09:57:39.186Z,65.35
2022-11-20T09:59:24.678Z,65.67
2022-11-20T10:01:01.974Z,65.40
2022-11-20T10:02:41.971Z,65.55
2022-11-20T10:04:17.854Z,65.59
2022-11-20T10:05:54.014Z,65.70
2022-11-20T10:07:32.766Z,65.57
2022-11-20T10:09:20.037Z,65.58
2022-11-20T10:10:57.687Z,65.71
2022-11-20T10:12:42.902Z,65.35
2022-11-20T10:14:28.350Z,65.39
2022-11-20T10:16:18.092Z,65.21
2022-11-20T10:18:05.227Z,65.15
2022-11-20T10:19:53.202Z,65.19
2022-11-20T10:21:33.841Z,65.44
2022-11-20T10:23:26.266Z,65.40
2022-11-20T10:25:06.735Z,65.36
2022-11-20T10:26:47.407Z,65.43
2022-11-20T10:28:35.759Z,65.45
2022-11-20T10:30:11.703Z,65.75
2022-11-20T10:31:46.254Z,65.61
2022-11-20T10:33:20.605Z,65.61
2022-11-20T10:34:58.297Z,65.77
2022-11-20T10:36:34.871Z,65.48
2022-11-20T10:38:14.308Z,65.04
2022-11-20T10:39:55.641Z,65.32
2022-11-20T10:41:35.925Z,64.74
2022-11-20T10:43:13.922Z,64.48
2022-11-20T10:45:05.817Z,64.24
2022-11-20T10:46:43.229Z,64.36
2022-11-20T10:48:22.126Z,64.39
2022-11-20T10:49:56.416Z,64.48
2022-11-20T10:51:38.179Z,64.94
2022-11-20T10:53:21.516Z,64.36
2022-11-20T10:55:02.234Z,64.58
2022-11-20T10:56:48.314Z,64.76
2022-11-20T10:58:32.776Z,64.97
2022-11-20T11:00:07.285Z,65.31
2022-11-20T11:01:42.652Z,64.77
2022-11-20T11:03:23.452Z,64.28
2022-11-20T11:04:55.714Z,64.42
2022-11-20T11:06:35.401Z,64.41
2022-11-20T11:08:13.561Z,64.44
2022-11-20T11:09:49.060Z,64.36
2022-11-20T11:11:24.243Z,64.63
2022-11-20T11:12:57.264Z,64.44
2022-11-20T11:14:28.952Z,64.62
2022-11-20T11:16:00.627Z,64.06
2022-11-20T11:17:33.710Z,63.51
2022-11-20T11:19:06.439Z,63.59
2022-11-20T11:20:39.165Z,63.58
2022-11-20T11:22:17.359Z,63.62
2022-11-20T11:24:13.438Z,63.99
2022-11-20T11:25:58.970Z,63.90
2022-11-20T11:27:30.981Z,64.00
2022-11-20T11:29:05.075Z,64.33
2022-11-20T11:30:43.948Z,64.44
2022-11-20T11:32:18.779Z,63.92
2022-11-20T11:33:50.415Z,64.07
2022-11-20T11:35:25.406Z,63.96
2022-11-20T11:37:00.449Z,63.99
2022-11-20T11:38:36.305Z,64.15
2022-11-20T11:40:28.076Z,64.51
2022-11-20T11:42:01.848Z,64.35
2022-11-20T11:43:53.807Z,64.69
2022-11-20T11:45:27.244Z,63.95
2022-11-20T11:46:59.247Z,63.81
2022-11-20T11:48:31.002Z,64.35
2022-11-20T11:50:16.410Z,63.56
2022-11-20T11:52:02.178Z,64.06
2022-11-20T11:53:39.555Z,64.31
2022-11-20T11:55:17.856Z,63.57
2022-11-20T11:56:50.299Z,63.87
2022-11-20T11:58:39.469Z,63.43
2022-11-20T12:00:13.905Z,63.85
2022-11-20T12:01:52.473Z,63.45
2022-11-20T12:03:30.313Z,63.14
2022-11-20T12:05:09.636Z,63.10
2022-11-20T12:06:46.326Z,64.02
2022-11-20T12:08:22.436Z,63.48
2022-11-20T12:09:58.501Z,63.71
2022-11-20T12:11:33.974Z,63.40
2022-11-20T12:13:18.962Z,63.57
2022-11-20T12:14:53.574Z,63.57
2022-11-20T12:16:25.607Z,63.72
2022-11-20T12:17:58.705Z,64.30
2022-11-20T12:19:32.868Z,64.45
2022-11-20T12:21:18.495Z,64.79
2022-11-20T12:22:57.761Z,64.21
2022-11-20T12:24:43.567Z,64.10
2022-11-20T12:26:23.897Z,64.02
2022-11-20T12:28:19.834Z,64.69
2022-11-20T12:30:01.633Z,65.11
2022-11-20T12:31:51.011Z,64.67
2022-11-20T12:33:51.372Z,64.92
2022-11-20T12:35:40.100Z,64.53
2022-11-20T12:37:22.542Z,64.97
2022-11-20T12:39:28.092Z,64.60
2022-11-20T12:41:11.414Z,64.64
2022-11-20T12:43:15.200Z,65.70
2022-11-20T12:45:11.283Z,65.65
2022-11-20T12:46:47.893Z,65.21
2022-11-20T12:48:31.909Z,66.09
2022-11-20T12:50:16.043Z,65.71
2022-11-20T12:52:11.577Z,66.11
2022-11-20T12:53:56.974Z,66.72
2022-11-20T12:55:37.691Z,65.96
2022-11-20T12:57:16.813Z,66.52
2022-11-20T12:59:03.943Z,66.84
2022-11-20T13:00:40.436Z,66.46
2022-11-20T13:02:24.131Z,66.87
2022-11-20T13:04:07.799Z,67.38
2022-11-20T13:05:56.477Z,67.57
2022-11-20T13:07:29.267Z,67.33
2022-11-20T13:09:02.248Z,67.56
2022-11-20T13:10:47.005Z,67.80
2022-11-20T13:12:25.344Z,68.29
2022-11-20T13:14:13.406Z,68.49
2022-11-20T13:15:51.728Z,68.38
2022-11-20T13:17:31.781Z,67.95
2022-11-20T13:19:04.846Z,68.88
2022-11-20T13:20:37.437Z,67.88
2022-11-20T13:22:10.681Z,68.50
2022-11-20T13:23:42.346Z,67.62
2022-11-20T13:25:24.757Z,68.39
2022-11-20T13:27:04.855Z,68.19
2022-11-20T13:28:36.746Z,68.33
2022-11-20T13:30:18.250Z,68.28
2022-11-20T13:31:50.115Z,68.53
2022-11-20T13:33:29.732Z,68.32
2022-11-20T13:35:02.929Z,68.99
2022-11-20T13:36:37.611Z,68.86
2022-11-20T13:38:12.974Z,68.36
2022-11-20T13:39:44.626Z,68.15
2022-11-20T13:41:36.026Z,68.77
2022-11-20T13:43:22.458Z,68.60
2022-11-20T13:44:56.270Z,68.79
2022-11-20T13:46:38.346Z,68.74
2022-11-20T13:48:21.979Z,68.26
2022-11-20T13:49:55.821Z,68.57
2022-11-20T13:51:38.145Z,69.14
2022-11-20T13:53:27.708Z,68.67
2022-11-20T13:55:11.486Z,69.11
2022-11-20T13:56:55.039Z,69.46
2022-11-20T13:58:41.590Z,68.58
2022-11-20T14:00:16.461Z,68.60
2022-11-20T14:01:49.438Z,68.68
2022-11-20T14:03:44.025Z,69.32
2022-11-20T14:05:21.843Z,69.13
2022-11-20T14:06:53.717Z,68.65
2022-11-20T14:08:32.259Z,68.77
2022-11-20T14:10:04.833Z,68.55
2022-11-20T14:11:36.512Z,68.85
2022-11-20T14:13:12.164Z,68.32
2022-11-20T14:14:49.921Z,68.28
2022-11-20T14:16:21.596Z,68.47
2022-11-20T14:17:53.390Z,68.32
2022-11-20T14:19:29.343Z,69.05
2022-11-20T14:21:01.613Z,68.92
2022-11-20T14:22:33.373Z,68.44
2022-11-20T14:24:08.028Z,68.63
2022-11-20T14:25:43.645Z,69.29
2022-11-20T14:27:17.347Z,68.82
2022-11-20T14:28:51.669Z,69.52
2022-11-20T14:30:25.060Z,69.04
2022-11-20T14:31:57.901Z,69.32
2022-11-20T14:33:29.744Z,68.86
2022-11-20T14:35:09.000Z,69.21
2022-11-20T14:36:40.844Z,69.13
2022-11-20T14:38:15.260Z,68.74
2022-11-20T14:39:52.855Z,69.12
2022-11-20T14:41:25.336Z,69.24
2022-11-20T14:42:57.950Z,69.44
2022-11-20T14:44:34.289Z,69.25
2022-11-20T14:46:08.775Z,69.52
2022-11-20T14:47:41.858Z,68.57
2022-11-20T14:49:13.709Z,69.10
2022-11-20T14:50:45.435Z,68.75
2022-11-20T14:52:20.092Z,69.47
2022-11-20T14:53:52.092Z,69.06
2022-11-20T14:55:30.636Z,68.71
2022-11-20T14:57:04.532Z,68.97
2022-11-20T14:58:36.195Z,68.97
2022-11-20T15:00:20.269Z,69.11
2022-11-20T15:01:57.495Z,68.92
2022-11-20T15:03:33.505Z,69.54
2022-11-20T15:05:05.902Z,69.17
2022-11-20T15:06:38.535Z,69.67
2022-11-20T15:08:11.656Z,69.91
2022-11-20T15:09:43.401Z,70.02
2022-11-20T15:11:20.608Z,70.09
2022-11-20T15:12:54.072Z,70.33
2022-11-20T15:14:27.476Z,70.20
2022-11-20T15:16:01.132Z,70.42
2022-11-20T15:17:37.465Z,70.71
2022-11-20T15:19:18.238Z,70.96
2022-11-20T15:20:50.188Z,71.01
2022-11-20T15:22:21.846Z,71.13
2022-11-20T15:23:54.643Z,71.31
2022-11-20T15:25:26.603Z,71.31
2022-11-20T15:27:00.501Z,71.71
2022-11-20T15:28:34.401Z,72.11
2022-11-20T15:30:15.001Z,71.98
2022-11-20T15:31:46.693Z,72.61
2022-11-20T15:33:18.642Z,71.84
2022-11-20T15:34:50.331Z,72.07
2022-11-20T15:36:22.040Z,72.77
2022-11-20T15:37:53.681Z,72.48
2022-11-20T15:39:25.306Z,72.22
2022-11-20T15:40:57.207Z,72.23
2022-11-20T15:42:30.299Z,72.98
2022-11-20T15:44:04.555Z,73.15
2022-11-20T15:45:40.273Z,73.24
2022-11-20T15:47:12.055Z,73.55
2022-11-20T15:48:48.315Z,73.94
2022-11-20T15:50:20.992Z,73.71
2022-11-20T15:51:54.115Z,73.57
2022-11-20T15:53:25.823Z,73.59
2022-11-20T15:54:57.574Z,73.93
2022-11-20T15:56:29.195Z,74.46
2022-11-20T15:58:02.201Z,74.27
2022-11-20T15:59:33.943Z,74.51
2022-11-20T16:01:05.794Z,74.86
2022-11-20T16:02:37.538Z,74.69
2022-11-20T16:04:11.934Z,74.80
2022-11-20T16:05:44.379Z,75.26
2022-11-20T16:07:16.298Z,74.99
2022-11-20T16:08:48.003Z,75.08
2022-11-20T16:10:19.925Z,74.95
2022-11-20T16:11:51.763Z,75.38
2022-11-20T16:13:43.600Z,75.20
2022-11-20T16:15:33.726Z,75.41
2022-11-20T16:17:05.268Z,76.26
2022-11-20T16:18:37.050Z,75.81
2022-11-20T16:20:12.038Z,76.14
2022-11-20T16:21:43.871Z,76.33
2022-11-20T16:23:16.409Z,76.50
2022-11-20T16:24:48.233Z,76.53
2022-11-20T16:26:21.328Z,76.55
2022-11-20T16:27:53.017Z,76.75
2022-11-20T16:29:26.034Z,77.07
2022-11-20T16:30:57.790Z,76.80
2022-11-20T16:32:29.475Z,77.18
2022-11-20T16:34:05.918Z,77.88
2022-11-20T16:35:42.220Z,78.22
2022-11-20T16:37:13.885Z,78.41
2022-11-20T16:38:45.621Z,78.51
2022-11-20T16:40:17.382Z,79.45
2022-11-20T16:41:49.067Z,79.03
2022-11-20T16:43:20.707Z,79.21
2022-11-20T16:44:53.780Z,79.44
2022-11-20T16:46:27.178Z,79.67
2022-11-20T16:47:58.877Z,79.52
2022-11-20T16:49:30.486Z,79.68
2022-11-20T16:51:02.173Z,79.98
2022-11-20T16:52:33.956Z,80.27
2022-11-20T16:54:07.091Z,80.00
2022-11-20T16:55:38.712Z,79.91
2022-11-20T16:57:10.369Z,80.05
2022-11-20T16:58:42.277Z,80.52
2022-11-20T17:00:16.615Z,80.39
2022-11-20T17:01:48.424Z,80.81
2022-11-20T17:03:20.893Z,80.84
2022-11-20T17:04:52.757Z,81.12
2022-11-20T17:06:26.418Z,81.08
2022-11-20T17:07:58.229Z,80.83
2022-11-20T17:09:29.856Z,81.00
2022-11-20T17:11:05.305Z,81.45
2022-11-20T17:12:37.008Z,81.86
2022-11-20T17:14:10.708Z,81.50
2022-11-20T17:15:43.787Z,81.72
2022-11-20T17:17:15.382Z,82.17
2022-11-20T17:18:49.819Z,82.45
2022-11-20T17:20:22.207Z,82.64
2022-11-20T17:21:53.848Z,83.04
2022-11-20T17:23:27.825Z,83.88
2022-11-20T17:24:59.535Z,84.01
2022-11-20T17:26:32.162Z,84.82
2022-11-20T17:28:04.134Z,85.41
2022-11-20T17:29:41.795Z,84.94
2022-11-20T17:31:17.369Z,85.28
2022-11-20T17:32:48.996Z,86.02
2022-11-20T17:34:20.801Z,86.12
2022-11-20T17:35:52.520Z,86.42
2022-11-20T17:37:24.400Z,86.66
2022-11-20T17:38:56.031Z,86.87
2022-11-20T17:40:27.978Z,87.21
2022-11-20T17:42:18.341Z,87.07
2022-11-20T17:43:52.755Z,87.64
2022-11-20T17:45:24.418Z,87.61
2022-11-20T17:46:57.415Z,87.43
2022-11-20T17:48:30.571Z,87.83
2022-11-20T17:50:02.392Z,87.56
2022-11-20T17:51:37.564Z,87.33
2022-11-20T17:53:09.218Z,87.40
2022-11-20T17:54:40.913Z,87.84
2022-11-20T17:56:31.249Z,87.86
2022-11-20T17:58:06.515Z,88.33
2022-11-20T17:59:38.287Z,87.71
2022-11-20T18:01:10.941Z,87.70
2022-11-20T18:02:43.982Z,88.31
2022-11-20T18:04:16.659Z,87.66
2022-11-20T18:05:48.308Z,87.89
2022-11-20T18:07:20.079Z,87.78
2022-11-20T18:08:52.229Z,87.49
2022-11-20T18:10:24.070Z,87.13
2022-11-20T18:11:55.706Z,87.55
2022-11-20T18:13:48.009Z,87.31
2022-11-20T18:15:19.702Z,87.78
2022-11-20T18:16:53.079Z,87.34
2022-11-20T18:18:26.132Z,87.92
2022-11-20T18:20:21.691Z,87.96
2022-11-20T18:21:49.351Z,88.45
2022-11-20T18:23:20.947Z,88.87
2022-11-20T18:24:52.564Z,88.71
2022-11-20T18:26:25.286Z,88.68
2022-11-20T18:27:56.968Z,89.05
2022-11-20T18:29:31.195Z,88.87
2022-11-20T18:31:05.386Z,88.53
2022-11-20T18:32:37.059Z,88.31
2022-11-20T18:34:12.303Z,88.56
2022-11-20T18:35:43.971Z,88.91
2022-11-20T18:37:16.459Z,88.74
2022-11-20T18:38:50.241Z,88.79
2022-11-20T18:40:21.975Z,88.20
2022-11-20T18:42:11.919Z,88.38
2022-11-20T18:44:02.247Z,89.11
2022-11-20T18:45:33.943Z,88.83
2022-11-20T18:47:14.092Z,88.86
2022-11-20T18:48:46.395Z,88.84
2022-11-20T18:50:19.591Z,89.38
2022-11-20T18:51:51.313Z,89.16
2022-11-20T18:53:23.004Z,88.74
2022-11-20T18:54:55.569Z,89.28
2022-11-20T18:56:27.279Z,88.95
2022-11-20T18:58:00.034Z,89.48
2022-11-20T18:59:32.252Z,89.07
2022-11-20T19:01:06.200Z,89.88
2022-11-20T19:02:42.064Z,89.89
2022-11-20T19:04:17.762Z,89.08
2022-11-20T19:05:50.895Z,89.27
2022-11-20T19:07:23.175Z,89.40
2022-11-20T19:08:54.908Z,89.40
2022-11-20T19:10:27.308Z,89.06
2022-11-20T19:11:59.002Z,89.26
2022-11-20T19:13:32.537Z,89.15
2022-11-20T19:15:05.428Z,88.32
2022-11-20T19:16:37.080Z,88.44
2022-11-20T19:18:08.873Z,88.91
2022-11-20T19:19:40.759Z,89.81
2022-11-20T19:21:16.108Z,89.07
2022-11-20T19:22:50.411Z,88.82
2022-11-20T19:24:23.084Z,89.20
2022-11-20T19:25:58.820Z,89.45
2022-11-20T19:27:30.490Z,88.13
2022-11-20T19:29:02.743Z,88.12
2022-11-20T19:30:34.545Z,88.02
2022-11-20T19:32:06.244Z,88.52
2022-11-20T19:33:40.695Z,88.13
2022-11-20T19:35:13.269Z,87.81
2022-11-20T19:36:46.824Z,86.77
2022-11-20T19:38:18.538Z,86.00
2022-11-20T19:39:51.897Z,86.27
2022-11-20T19:41:31.614Z,86.26
2022-11-20T19:43:03.939Z,85.33
2022-11-20T19:44:38.826Z,85.04
2022-11-20T19:46:10.482Z,85.50
2022-11-20T19:49:34.494Z,85.49
2022-11-20T19:51:16.738Z,84.90
2022-11-20T19:52:53.236Z,85.09
2022-11-20T19:54:30.374Z,84.61
2022-11-20T19:56:02.675Z,84.74
2022-11-20T19:57:34.424Z,84.43
2022-11-20T19:59:06.250Z,84.60
2022-11-20T20:00:38.005Z,85.59
2022-11-20T20:02:11.274Z,85.51
2022-11-20T20:03:44.790Z,85.72
2022-11-20T20:05:16.515Z,85.38
2022-11-20T20:06:48.414Z,84.59
2022-11-20T20:08:23.906Z,85.06
2022-11-20T20:09:55.563Z,85.00
2022-11-20T20:11:29.829Z,84.68
2022-11-20T20:13:02.267Z,85.15
2022-11-20T20:14:34.800Z,84.79
2022-11-20T20:16:07.741Z,84.31
2022-11-20T20:17:40.654Z,84.71
2022-11-20T20:19:14.226Z,85.14
2022-11-20T20:20:45.897Z,84.49
2022-11-20T20:22:17.620Z,85.48